Meishomaru — JD3044 — position and weather

sailwx.info

Track history (hours):
 
Tides and Currents Weather Stations Pressure Air Temp Water Temp Dewpoint Dewpoint Depression Visibility Wind Speed Wind Dir Waves Ship Positions

Meishomaru

Last reported at 2015-May-05 04:33 UTC. Time now 2015-May-05 05:12 UTC.
Position N 35°18' E 139°44'.

Length 68 m; draft 4 m.

Type: Tanker. MMSI: 431001216.

Date/timePositionNaut miles runAvg speedWind from/ knotsBaromVisibWave heightAir tempDewpointWater temp
2015-May-05 04:33N 35°18' E 139°44'1010.1
2015-May-05 03:33N 35°28' E 139°48'1212.2
2015-May-05 02:33N 35°31' E 140°02'1 0.5
2015-May-05 01:28N 35°31' E 140°02'0 0.0
2015-May-05 00:31N 35°31' E 140°02'0 0.0
2015-May-04 23:28N 35°31' E 140°02'2 1.9
2015-May-04 22:33N 35°31' E 140°00'5 4.2
2015-May-04 21:28N 35°29' E 139°55'0 0.0
2015-May-04 20:25N 35°29' E 139°55'0 0.0
2015-May-04 19:31N 35°29' E 139°55'0 0.0
2015-May-04 18:31N 35°29' E 139°56'0 0.0
2015-May-04 17:31N 35°29' E 139°56'0 0.0
2015-May-04 16:13N 35°29' E 139°56'0 0.0
2015-May-04 15:28N 35°29' E 139°56'0 0.0
2015-May-04 14:31N 35°29' E 139°56'8 7.9
2015-May-04 13:33N 35°25' E 139°47'1111.1
2015-May-04 12:33N 35°14' E 139°47'1212.4
2015-May-04 11:33N 35°03' E 139°41'23810.3
2015-May-03 12:33N 34°09' E 134°59'1110.7
2015-May-03 11:32N 34°20' E 134°59'1110.8
2015-May-03 10:32N 34°30' E 135°02'7 6.4
2015-May-03 09:26N 34°37' E 134°58'30 1.1
2015-May-02 05:30N 34°08' E 134°46'1212.3
2015-May-02 04:33N 33°60' E 134°56'24310.6
2015-May-01 05:33N 35°06' E 139°39'1111.2
2015-May-01 04:33N 35°16' E 139°46'1010.5
2015-May-01 03:33N 35°25' E 139°39'0 0.0
2015-May-01 02:32N 35°25' E 139°39'0 0.0
2015-May-01 01:32N 35°25' E 139°39'0 0.0
2015-May-01 00:32N 35°25' E 139°39'0 0.0
2015-Apr-30 23:32N 35°25' E 139°39'3 2.7
2015-Apr-30 22:29N 35°22' E 139°40'0 0.0
2015-Apr-30 21:32N 35°22' E 139°40'0 0.0
2015-Apr-30 20:32N 35°22' E 139°40'0 0.0
2015-Apr-30 19:32N 35°22' E 139°40'0 0.0
2015-Apr-30 18:32N 35°22' E 139°40'0 0.0
2015-Apr-30 17:32N 35°22' E 139°40'0 0.0
2015-Apr-30 16:32N 35°22' E 139°40'0 0.1
2015-Apr-30 15:32N 35°22' E 139°40'0 0.0
2015-Apr-30 14:32N 35°22' E 139°40'0 0.1
2015-Apr-30 13:29N 35°22' E 139°40'0 0.0
2015-Apr-30 12:32N 35°22' E 139°40'0 0.0
2015-Apr-30 11:32N 35°22' E 139°40'0 0.0
2015-Apr-30 10:32N 35°22' E 139°40'0 0.0
2015-Apr-30 09:32N 35°22' E 139°40'0 0.1
2015-Apr-30 08:33N 35°22' E 139°40'1110.6
2015-Apr-30 07:34N 35°13' E 139°47'1211.8
2015-Apr-30 06:34N 35°02' E 139°41'24810.1
2015-Apr-29 06:05N 34°05' E 134°47'  
2015-Apr-26 07:17N 34°08' E 134°47'24010.5
2015-Apr-25 08:20N 35°03' E 139°31'1012.3
2015-Apr-25 07:33N 35°07' E 139°41'1111.1
2015-Apr-25 06:33N 35°18' E 139°44'1010.4
2015-Apr-25 05:34N 35°28' E 139°48'  
Track history (hours):
 
Tides and Currents Weather Stations Pressure Air Temp Water Temp Dewpoint Dewpoint Depression Visibility Wind Speed Wind Dir Waves Ship Positions

Meishomaru

Last reported at 2015-May-05 04:33 UTC. Time now 2015-May-05 05:12 UTC.
Position N 35°18' E 139°44'.

Length 68 m; draft 4 m.

Type: Tanker. MMSI: 431001216.

Date/timePositionNaut miles runAvg speedWind from/ knotsBaromVisibWave heightAir tempDewpointWater temp
2015-May-05 04:33N 35°18' E 139°44'1010.1
2015-May-05 03:33N 35°28' E 139°48'1212.2
2015-May-05 02:33N 35°31' E 140°02'1 0.5
2015-May-05 01:28N 35°31' E 140°02'0 0.0
2015-May-05 00:31N 35°31' E 140°02'0 0.0
2015-May-04 23:28N 35°31' E 140°02'2 1.9
2015-May-04 22:33N 35°31' E 140°00'5 4.2
2015-May-04 21:28N 35°29' E 139°55'0 0.0
2015-May-04 20:25N 35°29' E 139°55'0 0.0
2015-May-04 19:31N 35°29' E 139°55'0 0.0
2015-May-04 18:31N 35°29' E 139°56'0 0.0
2015-May-04 17:31N 35°29' E 139°56'0 0.0
2015-May-04 16:13N 35°29' E 139°56'0 0.0
2015-May-04 15:28N 35°29' E 139°56'0 0.0
2015-May-04 14:31N 35°29' E 139°56'8 7.9
2015-May-04 13:33N 35°25' E 139°47'1111.1
2015-May-04 12:33N 35°14' E 139°47'1212.4
2015-May-04 11:33N 35°03' E 139°41'23810.3
2015-May-03 12:33N 34°09' E 134°59'1110.7
2015-May-03 11:32N 34°20' E 134°59'1110.8
2015-May-03 10:32N 34°30' E 135°02'7 6.4
2015-May-03 09:26N 34°37' E 134°58'30 1.1
2015-May-02 05:30N 34°08' E 134°46'1212.3
2015-May-02 04:33N 33°60' E 134°56'24310.6
2015-May-01 05:33N 35°06' E 139°39'1111.2
2015-May-01 04:33N 35°16' E 139°46'1010.5
2015-May-01 03:33N 35°25' E 139°39'0 0.0
2015-May-01 02:32N 35°25' E 139°39'0 0.0
2015-May-01 01:32N 35°25' E 139°39'0 0.0
2015-May-01 00:32N 35°25' E 139°39'0 0.0
2015-Apr-30 23:32N 35°25' E 139°39'3 2.7
2015-Apr-30 22:29N 35°22' E 139°40'0 0.0
2015-Apr-30 21:32N 35°22' E 139°40'0 0.0
2015-Apr-30 20:32N 35°22' E 139°40'0 0.0
2015-Apr-30 19:32N 35°22' E 139°40'0 0.0
2015-Apr-30 18:32N 35°22' E 139°40'0 0.0
2015-Apr-30 17:32N 35°22' E 139°40'0 0.0
2015-Apr-30 16:32N 35°22' E 139°40'0 0.1
2015-Apr-30 15:32N 35°22' E 139°40'0 0.0
2015-Apr-30 14:32N 35°22' E 139°40'0 0.1
2015-Apr-30 13:29N 35°22' E 139°40'0 0.0
2015-Apr-30 12:32N 35°22' E 139°40'0 0.0
2015-Apr-30 11:32N 35°22' E 139°40'0 0.0
2015-Apr-30 10:32N 35°22' E 139°40'0 0.0
2015-Apr-30 09:32N 35°22' E 139°40'0 0.1
2015-Apr-30 08:33N 35°22' E 139°40'1110.6
2015-Apr-30 07:34N 35°13' E 139°47'1211.8
2015-Apr-30 06:34N 35°02' E 139°41'24810.1
2015-Apr-29 06:05N 34°05' E 134°47'  
2015-Apr-26 07:17N 34°08' E 134°47'24010.5
2015-Apr-25 08:20N 35°03' E 139°31'1012.3
2015-Apr-25 07:33N 35°07' E 139°41'1111.1
2015-Apr-25 06:33N 35°18' E 139°44'1010.4
2015-Apr-25 05:34N 35°28' E 139°48'  

Dump ship's entire track history